Shell Bell — WDJ3450 — position and weather

sailwx.info

Track history (hours):
 
Tides and Currents Weather Stations Pressure Air Temp Water Temp Dewpoint Dewpoint Depression Visibility Wind Speed Wind Dir Waves Ship Positions

Shell Bell

Owner: Venardi Mr, Mark L, Pleasant Hill, CA. More information available from US FCC via Universal Licensing System and Coast Guard Vessel Documentation Center.

Last reported at 2017-Nov-20 00:08 UTC. Time now 2018-Jan-24 01:52 UTC.
Position N 37°46' W 122°17'.
Warning: this ship's position is months out of date.

Length 12 m.

Type: Sailing vessel. MMSI: 367768090.

Date/timePositionNaut miles runAvg speedWind from/ knotsBaromVisibWave heightAir tempDewpointWater temp
2017-Nov-20 00:08N 37°46' W 122°17'0 0.2
2017-Nov-20 00:00N 37°46' W 122°17'2 4.2
2017-Nov-19 23:30N 37°47' W 122°20'3 5.7
2017-Nov-19 23:00N 37°48' W 122°23'2 4.2
2017-Nov-19 22:30N 37°49' W 122°25'3 5.0
2017-Nov-19 22:00N 37°49' W 122°28'1 1.7
2017-Nov-19 21:30N 37°50' W 122°28'3 5.1
2017-Nov-19 21:00N 37°52' W 122°27'2 4.5
2017-Nov-19 20:30N 37°50' W 122°25'2 4.6
2017-Nov-19 20:00N 37°49' W 122°23'1 2.8
2017-Nov-19 19:30N 37°48' W 122°22'3 7.0
2017-Nov-19 19:00N 37°46' W 122°18'1 1.6
2017-Nov-19 18:29N 37°46' W 122°17'  
Track history (hours):
 
Tides and Currents Weather Stations Pressure Air Temp Water Temp Dewpoint Dewpoint Depression Visibility Wind Speed Wind Dir Waves Ship Positions

Shell Bell

Owner: Venardi Mr, Mark L, Pleasant Hill, CA. More information available from US FCC via Universal Licensing System and Coast Guard Vessel Documentation Center.

Last reported at 2017-Nov-20 00:08 UTC. Time now 2018-Jan-24 01:52 UTC.
Position N 37°46' W 122°17'.
Warning: this ship's position is months out of date.

Length 12 m.

Type: Sailing vessel. MMSI: 367768090.

Date/timePositionNaut miles runAvg speedWind from/ knotsBaromVisibWave heightAir tempDewpointWater temp
2017-Nov-20 00:08N 37°46' W 122°17'0 0.2
2017-Nov-20 00:00N 37°46' W 122°17'2 4.2
2017-Nov-19 23:30N 37°47' W 122°20'3 5.7
2017-Nov-19 23:00N 37°48' W 122°23'2 4.2
2017-Nov-19 22:30N 37°49' W 122°25'3 5.0
2017-Nov-19 22:00N 37°49' W 122°28'1 1.7
2017-Nov-19 21:30N 37°50' W 122°28'3 5.1
2017-Nov-19 21:00N 37°52' W 122°27'2 4.5
2017-Nov-19 20:30N 37°50' W 122°25'2 4.6
2017-Nov-19 20:00N 37°49' W 122°23'1 2.8
2017-Nov-19 19:30N 37°48' W 122°22'3 7.0
2017-Nov-19 19:00N 37°46' W 122°18'1 1.6
2017-Nov-19 18:29N 37°46' W 122°17'  

Dump ship's entire track history